Whitfield, Mississippi
Current Conditions -  °F | °C
As of 5:54 PM on Thursday 27 Nov 2014 (Local Time) from KJAN Reporting Station
Clear Clear  
Wind Chill: 34°   Ceiling: Unl
Heat Index: 39°   Visibility: 10mi
Dew Point: 30°   Wind: 7mph
Humidity: 70%   Direction: 360°N
Pressure: 30.46"   Gusts: NA
Location:  32.24°N, 90.07°W
Report Text: KJAN 272354Z 36006KT 10SM CLR 04/M01 A3046 RMK AO2 SLP317 T00391011 10111 20039 50005
Loading
Personal Weather Stations






























Interactive Weather Map New forecast layout! Learn more

10-Day Weather Forecast

Advertisements
Track Severe Weather on mobile